sensor_id;sensor_type;location;lat;lon;timestamp;P1;durP1;ratioP1;P2;durP2;ratioP2
47259;SDS011;32999;52.412;4.890;2023-02-23T00:04:09;66.13;;;24.00;;
47259;SDS011;32999;52.412;4.890;2023-02-23T00:09:11;61.05;;;22.45;;
47259;SDS011;32999;52.412;4.890;2023-02-23T00:14:25;52.75;;;20.23;;
47259;SDS011;32999;52.412;4.890;2023-02-23T00:19:30;55.70;;;21.63;;
47259;SDS011;32999;52.412;4.890;2023-02-23T00:24:36;62.15;;;23.20;;
47259;SDS011;32999;52.412;4.890;2023-02-23T00:29:41;53.42;;;21.42;;
47259;SDS011;32999;52.412;4.890;2023-02-23T00:34:42;60.15;;;20.80;;
47259;SDS011;32999;52.412;4.890;2023-02-23T00:39:44;50.72;;;21.70;;
47259;SDS011;32999;52.412;4.890;2023-02-23T00:44:48;53.58;;;21.20;;
47259;SDS011;32999;52.412;4.890;2023-02-23T00:49:50;58.58;;;21.50;;
47259;SDS011;32999;52.412;4.890;2023-02-23T00:54:51;54.50;;;21.15;;
47259;SDS011;32999;52.412;4.890;2023-02-23T00:59:56;59.00;;;22.83;;
47259;SDS011;32999;52.412;4.890;2023-02-23T01:04:58;48.20;;;20.73;;
47259;SDS011;32999;52.412;4.890;2023-02-23T01:10:00;61.25;;;24.10;;
47259;SDS011;32999;52.412;4.890;2023-02-23T01:15:03;54.72;;;23.75;;
47259;SDS011;32999;52.412;4.890;2023-02-23T01:20:08;62.42;;;24.60;;
47259;SDS011;32999;52.412;4.890;2023-02-23T01:25:15;56.95;;;23.25;;
47259;SDS011;32999;52.412;4.890;2023-02-23T01:30:19;63.45;;;24.70;;
47259;SDS011;32999;52.412;4.890;2023-02-23T01:35:21;58.40;;;23.75;;
47259;SDS011;32999;52.412;4.890;2023-02-23T01:40:24;61.90;;;23.92;;
47259;SDS011;32999;52.412;4.890;2023-02-23T01:45:31;65.22;;;24.95;;
47259;SDS011;32999;52.412;4.890;2023-02-23T01:50:36;78.63;;;26.25;;
47259;SDS011;32999;52.412;4.890;2023-02-23T01:55:43;71.53;;;24.48;;
47259;SDS011;32999;52.412;4.890;2023-02-23T02:05:54;69.28;;;24.33;;
47259;SDS011;32999;52.412;4.890;2023-02-23T02:10:57;68.68;;;26.85;;
47259;SDS011;32999;52.412;4.890;2023-02-23T02:21:35;70.95;;;24.98;;
47259;SDS011;32999;52.412;4.890;2023-02-23T02:26:59;81.70;;;25.30;;
47259;SDS011;32999;52.412;4.890;2023-02-23T02:37:48;81.72;;;26.52;;
47259;SDS011;32999;52.412;4.890;2023-02-23T02:43:02;75.40;;;26.33;;
47259;SDS011;32999;52.412;4.890;2023-02-23T02:48:13;102.03;;;26.30;;
47259;SDS011;32999;52.412;4.890;2023-02-23T02:53:27;73.90;;;24.47;;
47259;SDS011;32999;52.412;4.890;2023-02-23T02:58:36;89.72;;;25.55;;
47259;SDS011;32999;52.412;4.890;2023-02-23T03:03:43;83.43;;;25.45;;
47259;SDS011;32999;52.412;4.890;2023-02-23T03:09:07;89.40;;;23.45;;
47259;SDS011;32999;52.412;4.890;2023-02-23T03:14:37;71.00;;;21.92;;
47259;SDS011;32999;52.412;4.890;2023-02-23T03:20:05;77.13;;;23.20;;
47259;SDS011;32999;52.412;4.890;2023-02-23T03:25:40;78.80;;;21.30;;
47259;SDS011;32999;52.412;4.890;2023-02-23T03:31:07;68.55;;;22.15;;
47259;SDS011;32999;52.412;4.890;2023-02-23T03:36:32;87.10;;;24.40;;
47259;SDS011;32999;52.412;4.890;2023-02-23T03:47:21;65.05;;;22.10;;
47259;SDS011;32999;52.412;4.890;2023-02-23T03:52:47;70.35;;;21.92;;
47259;SDS011;32999;52.412;4.890;2023-02-23T03:58:14;67.55;;;22.77;;
47259;SDS011;32999;52.412;4.890;2023-02-23T04:03:37;77.22;;;22.05;;
47259;SDS011;32999;52.412;4.890;2023-02-23T04:09:00;69.68;;;20.58;;
47259;SDS011;32999;52.412;4.890;2023-02-23T04:14:25;66.13;;;22.00;;
47259;SDS011;32999;52.412;4.890;2023-02-23T04:19:32;62.22;;;20.13;;
47259;SDS011;32999;52.412;4.890;2023-02-23T04:24:34;64.72;;;20.30;;
47259;SDS011;32999;52.412;4.890;2023-02-23T04:29:38;71.97;;;20.75;;
47259;SDS011;32999;52.412;4.890;2023-02-23T04:34:40;62.90;;;22.27;;
47259;SDS011;32999;52.412;4.890;2023-02-23T04:39:41;71.13;;;20.80;;
47259;SDS011;32999;52.412;4.890;2023-02-23T04:44:48;64.13;;;21.13;;
47259;SDS011;32999;52.412;4.890;2023-02-23T04:49:50;59.17;;;18.83;;
47259;SDS011;32999;52.412;4.890;2023-02-23T04:54:52;58.83;;;19.52;;
47259;SDS011;32999;52.412;4.890;2023-02-23T04:59:56;70.18;;;19.15;;
47259;SDS011;32999;52.412;4.890;2023-02-23T05:04:58;68.57;;;19.30;;
47259;SDS011;32999;52.412;4.890;2023-02-23T05:10:00;69.97;;;20.30;;
47259;SDS011;32999;52.412;4.890;2023-02-23T05:15:04;66.45;;;21.38;;
47259;SDS011;32999;52.412;4.890;2023-02-23T05:20:07;58.40;;;19.13;;
47259;SDS011;32999;52.412;4.890;2023-02-23T05:25:10;55.45;;;18.67;;
47259;SDS011;32999;52.412;4.890;2023-02-23T05:30:13;60.90;;;19.40;;
47259;SDS011;32999;52.412;4.890;2023-02-23T05:35:15;67.72;;;21.05;;
47259;SDS011;32999;52.412;4.890;2023-02-23T05:40:17;68.65;;;22.17;;
47259;SDS011;32999;52.412;4.890;2023-02-23T05:45:20;69.47;;;21.95;;
47259;SDS011;32999;52.412;4.890;2023-02-23T05:50:21;59.60;;;20.27;;
47259;SDS011;32999;52.412;4.890;2023-02-23T05:55:23;61.40;;;20.27;;
47259;SDS011;32999;52.412;4.890;2023-02-23T06:00:26;68.20;;;21.55;;
47259;SDS011;32999;52.412;4.890;2023-02-23T06:05:28;70.22;;;23.15;;
47259;SDS011;32999;52.412;4.890;2023-02-23T06:10:31;72.18;;;21.77;;
47259;SDS011;32999;52.412;4.890;2023-02-23T06:15:34;58.28;;;20.50;;
47259;SDS011;32999;52.412;4.890;2023-02-23T06:20:36;68.20;;;21.63;;
47259;SDS011;32999;52.412;4.890;2023-02-23T06:25:39;50.65;;;19.20;;
47259;SDS011;32999;52.412;4.890;2023-02-23T06:30:42;65.80;;;20.25;;
47259;SDS011;32999;52.412;4.890;2023-02-23T06:35:49;61.97;;;20.67;;
47259;SDS011;32999;52.412;4.890;2023-02-23T06:40:51;62.15;;;18.42;;
47259;SDS011;32999;52.412;4.890;2023-02-23T06:45:54;57.03;;;18.65;;
47259;SDS011;32999;52.412;4.890;2023-02-23T06:50:57;55.83;;;19.20;;
47259;SDS011;32999;52.412;4.890;2023-02-23T06:55:59;56.80;;;18.88;;
47259;SDS011;32999;52.412;4.890;2023-02-23T07:01:03;52.95;;;17.55;;
47259;SDS011;32999;52.412;4.890;2023-02-23T07:06:05;51.65;;;17.58;;
47259;SDS011;32999;52.412;4.890;2023-02-23T07:11:08;50.70;;;15.95;;
47259;SDS011;32999;52.412;4.890;2023-02-23T07:16:13;50.75;;;18.73;;
47259;SDS011;32999;52.412;4.890;2023-02-23T07:21:15;43.33;;;16.70;;
47259;SDS011;32999;52.412;4.890;2023-02-23T07:26:17;48.63;;;16.05;;
47259;SDS011;32999;52.412;4.890;2023-02-23T07:31:20;47.60;;;16.02;;
47259;SDS011;32999;52.412;4.890;2023-02-23T07:36:22;42.22;;;13.95;;
47259;SDS011;32999;52.412;4.890;2023-02-23T07:41:24;30.20;;;11.38;;
47259;SDS011;32999;52.412;4.890;2023-02-23T07:46:27;28.17;;;11.10;;
47259;SDS011;32999;52.412;4.890;2023-02-23T07:51:29;29.60;;;11.05;;
47259;SDS011;32999;52.412;4.890;2023-02-23T07:56:31;26.17;;;9.93;;
47259;SDS011;32999;52.412;4.890;2023-02-23T08:01:35;33.65;;;12.05;;
47259;SDS011;32999;52.412;4.890;2023-02-23T08:06:37;32.00;;;11.88;;
47259;SDS011;32999;52.412;4.890;2023-02-23T08:11:39;33.95;;;12.90;;
47259;SDS011;32999;52.412;4.890;2023-02-23T08:16:42;36.88;;;12.70;;
47259;SDS011;32999;52.412;4.890;2023-02-23T08:21:43;27.40;;;11.65;;
47259;SDS011;32999;52.412;4.890;2023-02-23T08:26:45;33.88;;;11.73;;
47259;SDS011;32999;52.412;4.890;2023-02-23T08:31:50;23.75;;;10.00;;
47259;SDS011;32999;52.412;4.890;2023-02-23T08:36:52;32.33;;;11.23;;
47259;SDS011;32999;52.412;4.890;2023-02-23T08:41:54;26.38;;;11.35;;
47259;SDS011;32999;52.412;4.890;2023-02-23T08:46:57;24.23;;;9.20;;
47259;SDS011;32999;52.412;4.890;2023-02-23T08:52:00;24.92;;;9.93;;
47259;SDS011;32999;52.412;4.890;2023-02-23T08:57:01;22.85;;;10.07;;
47259;SDS011;32999;52.412;4.890;2023-02-23T09:02:05;28.98;;;9.68;;
47259;SDS011;32999;52.412;4.890;2023-02-23T09:07:08;21.37;;;9.13;;
47259;SDS011;32999;52.412;4.890;2023-02-23T09:12:13;27.40;;;10.35;;
47259;SDS011;32999;52.412;4.890;2023-02-23T09:17:16;20.15;;;8.10;;
47259;SDS011;32999;52.412;4.890;2023-02-23T09:22:18;22.73;;;9.57;;
47259;SDS011;32999;52.412;4.890;2023-02-23T09:27:20;19.63;;;9.15;;
47259;SDS011;32999;52.412;4.890;2023-02-23T09:32:23;26.08;;;9.65;;
47259;SDS011;32999;52.412;4.890;2023-02-23T09:37:24;22.20;;;9.38;;
47259;SDS011;32999;52.412;4.890;2023-02-23T09:42:29;25.90;;;9.50;;
47259;SDS011;32999;52.412;4.890;2023-02-23T09:47:47;25.88;;;10.45;;
47259;SDS011;32999;52.412;4.890;2023-02-23T09:53:01;25.17;;;10.43;;
47259;SDS011;32999;52.412;4.890;2023-02-23T09:58:07;34.80;;;12.02;;
47259;SDS011;32999;52.412;4.890;2023-02-23T10:03:22;38.88;;;15.02;;
47259;SDS011;32999;52.412;4.890;2023-02-23T10:08:34;36.42;;;14.60;;
47259;SDS011;32999;52.412;4.890;2023-02-23T10:13:47;36.03;;;14.03;;
47259;SDS011;32999;52.412;4.890;2023-02-23T10:18:59;43.65;;;18.17;;
47259;SDS011;32999;52.412;4.890;2023-02-23T10:24:10;38.33;;;15.57;;
47259;SDS011;32999;52.412;4.890;2023-02-23T10:29:19;39.88;;;15.10;;
47259;SDS011;32999;52.412;4.890;2023-02-23T10:34:25;47.80;;;19.13;;
47259;SDS011;32999;52.412;4.890;2023-02-23T10:39:28;49.88;;;18.15;;
47259;SDS011;32999;52.412;4.890;2023-02-23T10:44:31;34.30;;;13.77;;
47259;SDS011;32999;52.412;4.890;2023-02-23T10:49:38;29.70;;;13.40;;
47259;SDS011;32999;52.412;4.890;2023-02-23T10:54:44;35.30;;;13.10;;
47259;SDS011;32999;52.412;4.890;2023-02-23T11:00:02;27.98;;;12.63;;
47259;SDS011;32999;52.412;4.890;2023-02-23T11:05:26;32.88;;;13.75;;
47259;SDS011;32999;52.412;4.890;2023-02-23T11:10:30;24.70;;;10.93;;
47259;SDS011;32999;52.412;4.890;2023-02-23T11:15:33;26.45;;;10.82;;
47259;SDS011;32999;52.412;4.890;2023-02-23T11:20:44;24.95;;;11.18;;
47259;SDS011;32999;52.412;4.890;2023-02-23T11:25:49;33.25;;;12.98;;
47259;SDS011;32999;52.412;4.890;2023-02-23T11:30:55;28.48;;;12.52;;
47259;SDS011;32999;52.412;4.890;2023-02-23T11:36:17;25.55;;;11.93;;
47259;SDS011;32999;52.412;4.890;2023-02-23T11:41:29;31.73;;;13.35;;
47259;SDS011;32999;52.412;4.890;2023-02-23T11:46:34;27.40;;;11.88;;
47259;SDS011;32999;52.412;4.890;2023-02-23T11:51:40;27.83;;;11.73;;
47259;SDS011;32999;52.412;4.890;2023-02-23T11:56:48;30.00;;;12.75;;
47259;SDS011;32999;52.412;4.890;2023-02-23T12:02:02;34.33;;;13.85;;
47259;SDS011;32999;52.412;4.890;2023-02-23T12:07:22;38.92;;;12.77;;
47259;SDS011;32999;52.412;4.890;2023-02-23T12:12:34;27.92;;;10.57;;
47259;SDS011;32999;52.412;4.890;2023-02-23T12:17:45;23.38;;;10.75;;
47259;SDS011;32999;52.412;4.890;2023-02-23T12:22:53;24.60;;;10.07;;
47259;SDS011;32999;52.412;4.890;2023-02-23T12:27:59;31.05;;;11.60;;
47259;SDS011;32999;52.412;4.890;2023-02-23T12:33:08;31.15;;;10.98;;
47259;SDS011;32999;52.412;4.890;2023-02-23T12:38:16;31.55;;;12.15;;
47259;SDS011;32999;52.412;4.890;2023-02-23T12:43:29;40.17;;;13.27;;
47259;SDS011;32999;52.412;4.890;2023-02-23T12:48:41;44.20;;;15.63;;
47259;SDS011;32999;52.412;4.890;2023-02-23T12:53:51;39.05;;;15.30;;
47259;SDS011;32999;52.412;4.890;2023-02-23T12:58:56;39.38;;;14.82;;
47259;SDS011;32999;52.412;4.890;2023-02-23T13:04:08;38.10;;;14.88;;
47259;SDS011;32999;52.412;4.890;2023-02-23T13:09:38;41.30;;;15.02;;
47259;SDS011;32999;52.412;4.890;2023-02-23T13:14:47;37.92;;;14.80;;
47259;SDS011;32999;52.412;4.890;2023-02-23T13:19:57;40.75;;;14.82;;
47259;SDS011;32999;52.412;4.890;2023-02-23T13:25:14;36.92;;;14.52;;
47259;SDS011;32999;52.412;4.890;2023-02-23T13:30:25;42.75;;;14.70;;
47259;SDS011;32999;52.412;4.890;2023-02-23T13:35:32;33.42;;;12.85;;
47259;SDS011;32999;52.412;4.890;2023-02-23T13:40:41;21.42;;;8.60;;
47259;SDS011;32999;52.412;4.890;2023-02-23T13:45:48;17.33;;;6.53;;
47259;SDS011;32999;52.412;4.890;2023-02-23T13:51:02;16.85;;;6.05;;
47259;SDS011;32999;52.412;4.890;2023-02-23T13:56:14;6.45;;;1.80;;
47259;SDS011;32999;52.412;4.890;2023-02-23T14:01:20;7.03;;;1.40;;
47259;SDS011;32999;52.412;4.890;2023-02-23T14:06:24;7.45;;;2.70;;
47259;SDS011;32999;52.412;4.890;2023-02-23T14:11:36;6.65;;;1.73;;
47259;SDS011;32999;52.412;4.890;2023-02-23T14:16:43;10.55;;;1.73;;
47259;SDS011;32999;52.412;4.890;2023-02-23T14:22:25;12.52;;;2.35;;
47259;SDS011;32999;52.412;4.890;2023-02-23T14:27:41;12.80;;;1.88;;
47259;SDS011;32999;52.412;4.890;2023-02-23T14:32:44;14.45;;;2.75;;
47259;SDS011;32999;52.412;4.890;2023-02-23T14:37:53;17.52;;;2.55;;
47259;SDS011;32999;52.412;4.890;2023-02-23T14:49:05;21.55;;;3.65;;
47259;SDS011;32999;52.412;4.890;2023-02-23T14:54:11;14.93;;;2.55;;
47259;SDS011;32999;52.412;4.890;2023-02-23T14:59:24;23.75;;;2.72;;
47259;SDS011;32999;52.412;4.890;2023-02-23T15:09:31;23.85;;;4.03;;
47259;SDS011;32999;52.412;4.890;2023-02-23T15:14:37;23.20;;;4.35;;
47259;SDS011;32999;52.412;4.890;2023-02-23T15:49:56;30.50;;;4.75;;
47259;SDS011;32999;52.412;4.890;2023-02-23T16:01:46;38.05;;;5.45;;
47259;SDS011;32999;52.412;4.890;2023-02-23T16:07:16;31.60;;;3.45;;
47259;SDS011;32999;52.412;4.890;2023-02-23T16:37:26;27.38;;;4.28;;
47259;SDS011;32999;52.412;4.890;2023-02-23T16:42:30;22.98;;;3.95;;
47259;SDS011;32999;52.412;4.890;2023-02-23T16:47:34;14.80;;;2.65;;
47259;SDS011;32999;52.412;4.890;2023-02-23T16:52:49;14.93;;;2.35;;
47259;SDS011;32999;52.412;4.890;2023-02-23T16:57:58;20.88;;;3.15;;
47259;SDS011;32999;52.412;4.890;2023-02-23T17:03:05;22.55;;;3.75;;
47259;SDS011;32999;52.412;4.890;2023-02-23T17:32:57;15.38;;;1.98;;
47259;SDS011;32999;52.412;4.890;2023-02-23T17:38:00;19.30;;;3.10;;
47259;SDS011;32999;52.412;4.890;2023-02-23T17:43:02;15.07;;;2.38;;
47259;SDS011;32999;52.412;4.890;2023-02-23T18:00:26;19.73;;;2.70;;
47259;SDS011;32999;52.412;4.890;2023-02-23T18:05:28;12.27;;;1.93;;
47259;SDS011;32999;52.412;4.890;2023-02-23T18:10:31;14.13;;;2.53;;
47259;SDS011;32999;52.412;4.890;2023-02-23T18:15:37;17.17;;;1.73;;
47259;SDS011;32999;52.412;4.890;2023-02-23T18:20:40;11.30;;;1.80;;
47259;SDS011;32999;52.412;4.890;2023-02-23T18:26:01;21.45;;;1.95;;
47259;SDS011;32999;52.412;4.890;2023-02-23T19:31:20;10.57;;;1.90;;
47259;SDS011;32999;52.412;4.890;2023-02-23T19:47:49;16.02;;;2.67;;
47259;SDS011;32999;52.412;4.890;2023-02-23T19:58:55;14.98;;;2.97;;
